Time;durP1;ratioP1;P1;durP2;ratioP2;P2;SDS_P1;SDS_P2;PMS_P1;PMS_P2;Temp;Humidity;BMP_temperature;BMP_pressure;BME280_temperature;BME280_humidity;BME280_pressure;Samples;Min_cycle;Max_cycle;Signal;HPM_P1;HPM_P2
2022/08/23 00:01:10;;;;;;;;;;;19.80;99.90;;;;;;5093491;28;19919;-76
2022/08/23 00:03:36;;;;;;;;;;;19.70;99.90;;;;;;5094451;28;19915;-76
2022/08/23 00:06:02;;;;;;;;;;;19.70;99.90;;;;;;5094224;28;19908;-75
2022/08/23 00:08:28;;;;;;;;;;;19.80;99.90;;;;;;5093335;28;19908;-75
2022/08/23 00:10:54;;;;;;;;;;;19.80;99.90;;;;;;5093734;28;19912;-75
2022/08/23 00:13:19;;;;;;;;;;;19.80;99.90;;;;;;5093387;28;19912;-75
2022/08/23 00:15:45;;;;;;;;;;;19.80;99.90;;;;;;5093914;28;20382;-75
2022/08/23 00:18:13;;;;;;;;;;;19.80;99.90;;;;;;5093750;28;19913;-75
2022/08/23 00:20:38;;;;;;;;;;;19.80;99.90;;;;;;5093275;28;20285;-75
2022/08/23 00:23:04;;;;;;;;;;;19.90;99.90;;;;;;5093501;28;19908;-75
2022/08/23 00:25:29;;;;;;;;;;;19.80;99.90;;;;;;5093156;28;19912;-75
2022/08/23 00:27:55;;;;;;;;;;;19.90;99.90;;;;;;5094094;28;19908;-75
2022/08/23 00:30:20;;;;;;;;;;;19.80;99.90;;;;;;5093401;28;20049;-75
2022/08/23 00:32:46;;;;;;;;;;;19.90;99.90;;;;;;5093906;28;19908;-75
2022/08/23 00:35:13;;;;;;;;;;;19.90;99.90;;;;;;5093479;28;19920;-75
2022/08/23 00:37:38;;;;;;;;;;;19.90;99.90;;;;;;5092986;28;19920;-75
2022/08/23 00:40:07;;;;;;;;;;;19.90;99.90;;;;;;5093129;28;19912;-75
2022/08/23 00:48:26;;;;;;;;;;;19.90;99.90;;;;;;5092659;28;19973;-75
2022/08/23 00:50:56;;;;;;;;;;;20.00;99.90;;;;;;5093342;28;20345;-75
2022/08/23 00:53:24;;;;;;;;;;;20.00;99.90;;;;;;5093006;28;19912;-75
2022/08/23 00:55:53;;;;;;;;;;;20.00;99.90;;;;;;5092944;28;19912;-75
2022/08/23 00:58:19;;;;;;;;;;;20.00;99.90;;;;;;5092541;28;19912;-76
2022/08/23 01:00:45;;;;;;;;;;;20.10;99.90;;;;;;5091840;28;20326;-76
2022/08/23 01:03:11;;;;;;;;;;;20.10;99.90;;;;;;5093221;28;19908;-75
2022/08/23 01:05:51;;;;;;;;;;;20.10;99.90;;;;;;5092484;28;19957;-75
2022/08/23 01:08:16;;;;;;;;;;;20.10;99.90;;;;;;5092919;28;19981;-75
2022/08/23 01:10:46;;;;;;;;;;;20.10;99.90;;;;;;5092558;28;20393;-75
2022/08/23 01:13:14;;;;;;;;;;;20.10;99.90;;;;;;5093319;28;19908;-75
2022/08/23 01:15:45;;;;;;;;;;;20.10;99.90;;;;;;5092468;28;20508;-75
2022/08/23 01:18:13;;;;;;;;;;;20.10;99.90;;;;;;5091366;28;19927;-75
2022/08/23 01:20:44;;;;;;;;;;;20.10;99.90;;;;;;5092400;28;19916;-76
2022/08/23 01:23:28;;;;;;;;;;;20.10;99.90;;;;;;5092483;28;19912;-73
2022/08/23 01:25:54;;;;;;;;;;;20.10;99.90;;;;;;5092919;28;19912;-75
2022/08/23 01:28:20;;;;;;;;;;;20.00;99.90;;;;;;5092505;28;19919;-75
2022/08/23 01:30:46;;;;;;;;;;;20.00;99.90;;;;;;5092378;28;20315;-75
2022/08/23 01:33:12;;;;;;;;;;;19.90;99.90;;;;;;5092862;28;19944;-75
2022/08/23 01:35:37;;;;;;;;;;;19.90;99.90;;;;;;5092470;28;19927;-75
2022/08/23 01:38:03;;;;;;;;;;;19.80;99.90;;;;;;5092264;28;20337;-75
2022/08/23 01:40:30;;;;;;;;;;;19.70;99.90;;;;;;5091715;28;19962;-75
2022/08/23 01:42:55;;;;;;;;;;;19.70;99.90;;;;;;5092409;28;19931;-75
2022/08/23 01:45:21;;;;;;;;;;;19.60;99.90;;;;;;5091245;28;19908;-75
2022/08/23 01:47:46;;;;;;;;;;;19.60;99.90;;;;;;5092252;28;19915;-76
2022/08/23 01:50:12;;;;;;;;;;;19.50;99.90;;;;;;5092226;28;19953;-76
2022/08/23 01:52:39;;;;;;;;;;;19.50;99.90;;;;;;5092136;28;19908;-76
2022/08/23 01:55:05;;;;;;;;;;;19.40;99.90;;;;;;5092748;28;20353;-76
2022/08/23 01:57:31;;;;;;;;;;;19.30;99.90;;;;;;5091789;28;19965;-75
2022/08/23 01:59:57;;;;;;;;;;;19.30;99.90;;;;;;5095693;28;19951;-74
2022/08/23 02:02:23;;;;;;;;;;;19.20;99.90;;;;;;5095767;28;20009;-75
2022/08/23 02:04:48;;;;;;;;;;;19.20;99.90;;;;;;5094743;28;19908;-75
2022/08/23 02:07:14;;;;;;;;;;;19.10;99.90;;;;;;5095922;28;19908;-75
2022/08/23 02:09:40;;;;;;;;;;;19.10;99.90;;;;;;5095543;28;19912;-75
2022/08/23 02:12:05;;;;;;;;;;;19.00;99.90;;;;;;5096387;28;19912;-74
2022/08/23 02:14:31;;;;;;;;;;;19.00;99.90;;;;;;5094465;28;19955;-75
2022/08/23 02:16:57;;;;;;;;;;;19.00;99.90;;;;;;5096189;28;20425;-75
2022/08/23 02:19:23;;;;;;;;;;;19.00;99.90;;;;;;5094721;28;20006;-74
2022/08/23 02:21:49;;;;;;;;;;;19.00;99.90;;;;;;5095660;28;19918;-75
2022/08/23 02:24:17;;;;;;;;;;;19.10;99.90;;;;;;5096110;28;20261;-74
2022/08/23 02:26:45;;;;;;;;;;;19.10;99.90;;;;;;5095281;28;19908;-75
2022/08/23 02:29:11;;;;;;;;;;;19.10;99.90;;;;;;5095864;28;19990;-75
2022/08/23 02:31:37;;;;;;;;;;;19.20;99.90;;;;;;5095362;28;19916;-75
2022/08/23 02:34:03;;;;;;;;;;;19.20;99.90;;;;;;5096053;28;19920;-75
2022/08/23 02:36:28;;;;;;;;;;;19.10;99.90;;;;;;5095320;28;19952;-75
2022/08/23 02:38:54;;;;;;;;;;;19.20;99.90;;;;;;5095119;28;20353;-75
2022/08/23 02:41:20;;;;;;;;;;;19.20;99.90;;;;;;5094254;28;19916;-75
2022/08/23 02:43:46;;;;;;;;;;;19.20;99.90;;;;;;5095195;28;19904;-75
2022/08/23 02:46:11;;;;;;;;;;;19.20;99.90;;;;;;5095777;28;19908;-76
2022/08/23 02:48:37;;;;;;;;;;;19.20;99.90;;;;;;5095116;28;20277;-75
2022/08/23 02:51:04;;;;;;;;;;;19.20;99.90;;;;;;5095457;28;19915;-75
2022/08/23 02:53:30;;;;;;;;;;;19.20;99.90;;;;;;5093646;28;19912;-76
2022/08/23 02:55:56;;;;;;;;;;;19.10;99.90;;;;;;5095225;28;19915;-76
2022/08/23 02:58:22;;;;;;;;;;;19.00;99.90;;;;;;5095409;28;20356;-74
2022/08/23 03:00:48;;;;;;;;;;;19.00;99.90;;;;;;5094737;28;19988;-76
2022/08/23 03:03:13;;;;;;;;;;;18.90;99.90;;;;;;5095395;28;19912;-75
2022/08/23 03:05:39;;;;;;;;;;;18.90;99.90;;;;;;5094876;28;20333;-75
2022/08/23 03:08:05;;;;;;;;;;;18.80;99.90;;;;;;5094464;28;19915;-75
2022/08/23 03:10:30;;;;;;;;;;;18.80;99.90;;;;;;5093160;28;20275;-75
2022/08/23 03:12:56;;;;;;;;;;;18.80;99.90;;;;;;5095233;28;19908;-75
2022/08/23 03:15:22;;;;;;;;;;;18.80;99.90;;;;;;5095169;28;20003;-75
2022/08/23 03:17:47;;;;;;;;;;;18.80;99.90;;;;;;5094514;28;20376;-75
2022/08/23 03:20:13;;;;;;;;;;;18.80;99.90;;;;;;5095085;28;19912;-75
2022/08/23 03:22:39;;;;;;;;;;;18.80;99.90;;;;;;5094066;28;19975;-76
2022/08/23 03:25:05;;;;;;;;;;;18.80;99.90;;;;;;5094981;28;20400;-76
2022/08/23 03:27:31;;;;;;;;;;;18.80;99.90;;;;;;5094392;28;19952;-76
2022/08/23 03:29:57;;;;;;;;;;;18.80;99.90;;;;;;5095084;28;19915;-76
2022/08/23 03:32:22;;;;;;;;;;;18.80;99.90;;;;;;5093309;28;19912;-76
2022/08/23 03:34:48;;;;;;;;;;;18.80;99.90;;;;;;5093926;28;20011;-76
2022/08/23 03:37:14;;;;;;;;;;;18.70;99.90;;;;;;5094237;28;19947;-76
2022/08/23 03:39:39;;;;;;;;;;;18.70;99.90;;;;;;5094059;28;20414;-76
2022/08/23 03:42:05;;;;;;;;;;;18.80;99.90;;;;;;5094217;28;20003;-76
2022/08/23 03:44:31;;;;;;;;;;;18.80;99.90;;;;;;5094083;28;19953;-76
2022/08/23 03:46:57;;;;;;;;;;;18.70;99.90;;;;;;5094408;28;19962;-76
2022/08/23 03:49:23;;;;;;;;;;;18.70;99.90;;;;;;5094459;28;19908;-75
2022/08/23 03:51:48;;;;;;;;;;;18.70;99.90;;;;;;5093848;28;19919;-76
2022/08/23 03:54:14;;;;;;;;;;;18.70;99.90;;;;;;5094818;28;19908;-75
2022/08/23 03:56:49;;;;;;;;;;;18.60;99.90;;;;;;5094008;28;19919;-75
2022/08/23 03:59:14;;;;;;;;;;;18.60;99.90;;;;;;5094295;28;19950;-76
2022/08/23 04:01:40;;;;;;;;;;;18.50;99.90;;;;;;5093856;28;19951;-76
2022/08/23 04:04:05;;;;;;;;;;;18.40;99.90;;;;;;5094172;28;19908;-76
2022/08/23 04:06:31;;;;;;;;;;;18.40;99.90;;;;;;5094194;28;19908;-76
2022/08/23 04:08:57;;;;;;;;;;;18.40;99.90;;;;;;5093513;28;19908;-76
2022/08/23 04:11:23;;;;;;;;;;;18.30;99.90;;;;;;5093895;28;20377;-75
2022/08/23 04:13:48;;;;;;;;;;;18.30;99.90;;;;;;5093241;28;20376;-75
2022/08/23 04:16:14;;;;;;;;;;;18.30;99.90;;;;;;5093784;28;19908;-75
2022/08/23 04:18:39;;;;;;;;;;;18.20;99.90;;;;;;5093065;28;19916;-75
2022/08/23 04:21:09;;;;;;;;;;;18.20;99.90;;;;;;5093611;28;20338;-75
2022/08/23 04:23:35;;;;;;;;;;;18.30;99.90;;;;;;5093291;28;19914;-76
2022/08/23 04:26:01;;;;;;;;;;;18.20;99.90;;;;;;5093495;28;19915;-75
2022/08/23 04:28:26;;;;;;;;;;;18.20;99.90;;;;;;5092291;28;19908;-75
2022/08/23 04:30:52;;;;;;;;;;;18.10;99.90;;;;;;5093114;28;19908;-75
2022/08/23 04:33:18;;;;;;;;;;;18.20;99.90;;;;;;5093583;28;20007;-75
2022/08/23 04:35:43;;;;;;;;;;;18.10;99.90;;;;;;5091724;28;19915;-74
2022/08/23 04:38:09;;;;;;;;;;;18.10;99.90;;;;;;5093494;28;20011;-75
2022/08/23 04:43:19;;;;;;;;;;;18.10;99.90;;;;;;5093119;28;20007;-75
2022/08/23 04:45:45;;;;;;;;;;;18.00;99.90;;;;;;5091597;28;19956;-75
2022/08/23 04:48:12;;;;;;;;;;;18.00;99.90;;;;;;5092005;28;20361;-75
2022/08/23 04:50:38;;;;;;;;;;;17.90;99.90;;;;;;5092785;28;19961;-75
2022/08/23 04:53:04;;;;;;;;;;;17.90;99.90;;;;;;5093075;28;19908;-75
2022/08/23 04:55:30;;;;;;;;;;;17.90;99.90;;;;;;5093293;28;20421;-75
2022/08/23 04:57:55;;;;;;;;;;;17.80;99.90;;;;;;5092673;28;19912;-75
2022/08/23 05:00:21;;;;;;;;;;;17.90;99.90;;;;;;5092886;28;20296;-75
2022/08/23 05:02:47;;;;;;;;;;;17.90;99.90;;;;;;5092555;28;19908;-75
2022/08/23 05:05:13;;;;;;;;;;;17.80;99.90;;;;;;5093089;28;20037;-75
2022/08/23 05:07:38;;;;;;;;;;;17.90;99.90;;;;;;5092623;28;19908;-75
2022/08/23 05:10:05;;;;;;;;;;;17.90;99.90;;;;;;5092747;28;19969;-75
2022/08/23 05:12:31;;;;;;;;;;;17.90;99.90;;;;;;5092736;28;19912;-75
2022/08/23 05:14:56;;;;;;;;;;;17.90;99.90;;;;;;5092783;28;19904;-75
2022/08/23 05:17:22;;;;;;;;;;;17.90;99.90;;;;;;5091916;28;19916;-75
2022/08/23 05:19:47;;;;;;;;;;;17.90;99.90;;;;;;5092154;28;19919;-76
2022/08/23 05:22:13;;;;;;;;;;;17.90;99.90;;;;;;5092790;28;20318;-76
2022/08/23 05:24:38;;;;;;;;;;;18.00;99.90;;;;;;5092454;28;19966;-76
2022/08/23 05:27:04;;;;;;;;;;;18.00;99.90;;;;;;5092933;28;19908;-76
2022/08/23 05:29:29;;;;;;;;;;;18.00;99.90;;;;;;5092931;28;19919;-76
2022/08/23 05:31:55;;;;;;;;;;;18.00;99.90;;;;;;5091945;28;20095;-76
2022/08/23 05:34:21;;;;;;;;;;;18.10;99.90;;;;;;5095067;28;20013;-76
2022/08/23 05:36:47;;;;;;;;;;;18.10;99.90;;;;;;5096198;28;20019;-76
2022/08/23 05:39:14;;;;;;;;;;;18.10;99.90;;;;;;5096838;28;19912;-76
2022/08/23 05:41:40;;;;;;;;;;;18.10;99.90;;;;;;5095866;28;19961;-76
2022/08/23 05:44:06;;;;;;;;;;;18.20;99.90;;;;;;5096530;28;19908;-76
2022/08/23 05:46:33;;;;;;;;;;;18.20;99.90;;;;;;5096512;28;19915;-76
2022/08/23 05:48:58;;;;;;;;;;;18.20;99.90;;;;;;5094694;28;20502;-76
2022/08/23 05:51:28;;;;;;;;;;;18.20;99.90;;;;;;5096451;28;19908;-75
2022/08/23 05:53:57;;;;;;;;;;;18.20;99.90;;;;;;5095748;28;19908;-75
2022/08/23 05:56:24;;;;;;;;;;;18.20;99.90;;;;;;5096001;28;20261;-74
2022/08/23 05:58:51;;;;;;;;;;;18.20;99.90;;;;;;5095517;28;19922;-75
2022/08/23 06:01:17;;;;;;;;;;;18.20;99.90;;;;;;5096369;28;19955;-75
2022/08/23 06:03:43;;;;;;;;;;;18.30;99.90;;;;;;5095335;28;19915;-76
2022/08/23 06:06:09;;;;;;;;;;;18.30;99.90;;;;;;5095053;28;19908;-75
2022/08/23 06:08:37;;;;;;;;;;;18.30;99.90;;;;;;5096259;28;19955;-75
2022/08/23 06:11:05;;;;;;;;;;;18.30;99.90;;;;;;5095566;28;19909;-75
2022/08/23 06:13:31;;;;;;;;;;;18.40;99.90;;;;;;5096334;28;19961;-76
2022/08/23 06:15:57;;;;;;;;;;;18.40;99.90;;;;;;5095630;28;20011;-76
2022/08/23 06:18:26;;;;;;;;;;;18.40;99.90;;;;;;5096395;28;20010;-76
2022/08/23 06:20:59;;;;;;;;;;;18.40;99.90;;;;;;5094241;28;20277;-76
2022/08/23 06:23:25;;;;;;;;;;;18.40;99.90;;;;;;5095824;28;20268;-76
2022/08/23 06:25:51;;;;;;;;;;;18.40;99.90;;;;;;5095828;28;19908;-76
2022/08/23 06:28:16;;;;;;;;;;;18.40;99.90;;;;;;5095497;28;20311;-76
2022/08/23 06:30:42;;;;;;;;;;;18.40;99.90;;;;;;5094386;28;19908;-76
2022/08/23 06:33:07;;;;;;;;;;;18.40;99.90;;;;;;5095606;28;19908;-76
2022/08/23 06:35:33;;;;;;;;;;;18.50;99.90;;;;;;5095118;28;19920;-76
2022/08/23 06:38:01;;;;;;;;;;;18.50;99.90;;;;;;5094942;28;19912;-76
2022/08/23 06:40:27;;;;;;;;;;;18.50;99.90;;;;;;5095701;28;20365;-76
2022/08/23 06:42:53;;;;;;;;;;;18.50;99.90;;;;;;5094802;28;19908;-75
2022/08/23 06:45:19;;;;;;;;;;;18.60;99.90;;;;;;5094706;28;19961;-76
2022/08/23 06:47:44;;;;;;;;;;;18.60;99.90;;;;;;5094736;28;19915;-75
2022/08/23 06:50:10;;;;;;;;;;;18.70;99.90;;;;;;5095575;28;19915;-75
2022/08/23 06:52:36;;;;;;;;;;;18.80;99.90;;;;;;5095603;28;20024;-75
2022/08/23 06:55:02;;;;;;;;;;;18.80;99.90;;;;;;5094586;28;19964;-75
2022/08/23 06:57:28;;;;;;;;;;;18.90;99.90;;;;;;5095347;28;20004;-74
2022/08/23 06:59:53;;;;;;;;;;;18.90;99.90;;;;;;5094896;28;19973;-75
2022/08/23 07:02:19;;;;;;;;;;;18.90;99.90;;;;;;5095434;28;19912;-75
2022/08/23 07:04:44;;;;;;;;;;;18.90;99.90;;;;;;5094906;28;20418;-75
2022/08/23 07:07:11;;;;;;;;;;;19.00;99.90;;;;;;5095332;28;19916;-75
2022/08/23 07:09:37;;;;;;;;;;;19.00;99.90;;;;;;5095442;28;20368;-75
2022/08/23 07:12:02;;;;;;;;;;;19.00;99.90;;;;;;5094283;28;19908;-75
2022/08/23 07:14:28;;;;;;;;;;;19.00;99.90;;;;;;5094739;28;19962;-75
2022/08/23 07:16:55;;;;;;;;;;;19.00;99.90;;;;;;5094595;28;19908;-75
2022/08/23 07:19:23;;;;;;;;;;;19.00;99.90;;;;;;5094789;28;19912;-75
2022/08/23 07:21:49;;;;;;;;;;;19.00;99.90;;;;;;5094128;28;19916;-75
2022/08/23 07:24:16;;;;;;;;;;;18.90;99.90;;;;;;5095020;28;19961;-75
2022/08/23 07:26:42;;;;;;;;;;;19.00;99.90;;;;;;5094849;28;20276;-75
2022/08/23 07:29:08;;;;;;;;;;;19.00;99.90;;;;;;5094284;28;19909;-75
2022/08/23 07:31:37;;;;;;;;;;;19.00;99.90;;;;;;5094836;28;20425;-74
2022/08/23 07:34:04;;;;;;;;;;;19.10;99.90;;;;;;5094070;28;19927;-75
2022/08/23 07:36:30;;;;;;;;;;;19.10;99.90;;;;;;5094729;28;19908;-76
2022/08/23 07:38:56;;;;;;;;;;;19.10;99.90;;;;;;5093767;28;20280;-75
2022/08/23 07:41:22;;;;;;;;;;;19.00;99.90;;;;;;5091509;28;19916;-74
2022/08/23 07:43:48;;;;;;;;;;;19.00;99.90;;;;;;5089487;28;19912;-74
2022/08/23 07:46:14;;;;;;;;;;;19.10;99.90;;;;;;5090848;28;19999;-75
2022/08/23 07:48:40;;;;;;;;;;;19.10;99.90;;;;;;5089588;28;19916;-75
2022/08/23 07:51:08;;;;;;;;;;;19.10;99.90;;;;;;5088814;28;20058;-74
2022/08/23 07:53:34;;;;;;;;;;;19.20;99.90;;;;;;5091202;28;19912;-75
2022/08/23 07:56:03;;;;;;;;;;;19.20;99.90;;;;;;5089432;28;19912;-75
2022/08/23 07:58:28;;;;;;;;;;;19.10;99.90;;;;;;5090751;28;19916;-75
2022/08/23 08:00:54;;;;;;;;;;;19.10;99.90;;;;;;5090641;28;19922;-75
2022/08/23 08:03:20;;;;;;;;;;;19.20;99.90;;;;;;5090941;28;19923;-75
2022/08/23 08:05:45;;;;;;;;;;;19.30;99.90;;;;;;5090860;28;19912;-75
2022/08/23 08:08:11;;;;;;;;;;;19.30;99.90;;;;;;5091343;28;19927;-76
2022/08/23 08:10:39;;;;;;;;;;;19.30;99.90;;;;;;5090888;28;19919;-76
2022/08/23 08:13:05;;;;;;;;;;;19.20;99.90;;;;;;5090310;28;20683;-76
2022/08/23 08:15:31;;;;;;;;;;;19.10;99.90;;;;;;5090451;28;20007;-74
2022/08/23 08:17:57;;;;;;;;;;;19.10;99.90;;;;;;5090336;28;19945;-75
2022/08/23 08:20:22;;;;;;;;;;;19.00;99.90;;;;;;5092022;28;20502;-75
2022/08/23 08:22:49;;;;;;;;;;;19.10;99.90;;;;;;5091325;28;19912;-75
2022/08/23 08:25:14;;;;;;;;;;;18.90;99.90;;;;;;5092478;28;19912;-76
2022/08/23 08:27:40;;;;;;;;;;;18.80;99.90;;;;;;5090409;28;20376;-75
2022/08/23 08:30:07;;;;;;;;;;;18.90;99.90;;;;;;5090154;28;20003;-75
2022/08/23 08:32:33;;;;;;;;;;;18.80;99.90;;;;;;5091241;28;19985;-75
2022/08/23 08:34:58;;;;;;;;;;;18.90;99.90;;;;;;5088297;28;20364;-75
2022/08/23 08:37:24;;;;;;;;;;;18.90;99.90;;;;;;5090141;28;20005;-76
2022/08/23 08:39:50;;;;;;;;;;;19.00;99.90;;;;;;5089686;28;20530;-75
2022/08/23 08:42:35;;;;;;;;;;;18.90;99.90;;;;;;5090767;28;19920;-77
2022/08/23 08:45:13;;;;;;;;;;;18.90;99.90;;;;;;5091082;28;19975;-76
2022/08/23 08:47:45;;;;;;;;;;;19.00;99.90;;;;;;5090581;28;20038;-75
2022/08/23 08:50:11;;;;;;;;;;;19.00;99.90;;;;;;5090001;28;19920;-75
2022/08/23 08:53:02;;;;;;;;;;;19.10;99.90;;;;;;5090434;28;20268;-75
2022/08/23 08:55:32;;;;;;;;;;;19.30;99.90;;;;;;5073050;28;19912;-75
2022/08/23 08:57:59;;;;;;;;;;;19.40;99.90;;;;;;5089733;28;20277;-74
2022/08/23 09:00:33;;;;;;;;;;;19.70;99.90;;;;;;5090321;28;19924;-75
2022/08/23 09:02:59;;;;;;;;;;;20.00;99.90;;;;;;5089733;28;20350;-74
2022/08/23 09:05:36;;;;;;;;;;;20.20;99.90;;;;;;5089330;28;20353;-75
2022/08/23 09:08:02;;;;;;;;;;;20.40;99.90;;;;;;5088417;28;19966;-74
2022/08/23 09:10:45;;;;;;;;;;;20.50;99.90;;;;;;5089991;28;19912;-75
2022/08/23 09:13:29;;;;;;;;;;;20.70;99.90;;;;;;5090803;28;19952;-75
2022/08/23 09:16:13;;;;;;;;;;;20.80;99.90;;;;;;5089194;28;20439;-74
2022/08/23 09:18:39;;;;;;;;;;;20.80;99.90;;;;;;5090173;28;20018;-75
2022/08/23 09:21:06;;;;;;;;;;;20.80;99.90;;;;;;5089421;28;20011;-75
2022/08/23 09:23:43;;;;;;;;;;;20.90;99.90;;;;;;5090472;28;20365;-75
2022/08/23 09:26:17;;;;;;;;;;;20.90;99.90;;;;;;5089594;28;19923;-76
2022/08/23 09:28:44;;;;;;;;;;;21.00;99.90;;;;;;5090117;28;19912;-76
2022/08/23 09:31:10;;;;;;;;;;;21.00;99.90;;;;;;5089528;28;19916;-76
2022/08/23 09:33:38;;;;;;;;;;;21.20;99.90;;;;;;5089371;28;20381;-75
2022/08/23 09:36:24;;;;;;;;;;;21.20;99.90;;;;;;5088941;28;19920;-76
2022/08/23 09:39:00;;;;;;;;;;;21.20;99.90;;;;;;5089605;28;19970;-76
2022/08/23 09:41:27;;;;;;;;;;;21.20;99.90;;;;;;5090435;28;20472;-76
2022/08/23 09:43:54;;;;;;;;;;;21.20;99.90;;;;;;5089437;28;19920;-74
2022/08/23 09:46:25;;;;;;;;;;;21.20;99.90;;;;;;5089882;28;19916;-75
2022/08/23 09:48:54;;;;;;;;;;;21.20;99.90;;;;;;5088894;28;19912;-75
2022/08/23 09:51:22;;;;;;;;;;;21.20;99.90;;;;;;5089649;28;19959;-75
2022/08/23 09:53:50;;;;;;;;;;;21.20;99.90;;;;;;5090042;28;20471;-77
2022/08/23 09:56:23;;;;;;;;;;;21.20;99.90;;;;;;5088408;28;19912;-75
2022/08/23 09:58:52;;;;;;;;;;;21.10;99.90;;;;;;5089275;28;20379;-75
2022/08/23 10:01:20;;;;;;;;;;;21.10;99.90;;;;;;5089663;28;19939;-75
2022/08/23 10:03:46;;;;;;;;;;;21.10;99.90;;;;;;5089455;28;19918;-76
2022/08/23 10:06:20;;;;;;;;;;;21.10;99.90;;;;;;5090688;28;19913;-77
2022/08/23 10:08:51;;;;;;;;;;;21.30;99.90;;;;;;5089402;28;19919;-75
2022/08/23 10:11:26;;;;;;;;;;;21.40;99.90;;;;;;5090311;28;19912;-75
2022/08/23 10:13:51;;;;;;;;;;;21.50;99.90;;;;;;5088622;28;19940;-75
2022/08/23 10:16:26;;;;;;;;;;;21.80;99.90;;;;;;5089339;28;20437;-75
2022/08/23 10:19:03;;;;;;;;;;;21.80;99.90;;;;;;5090504;28;19923;-76
2022/08/23 10:21:37;;;;;;;;;;;21.70;99.90;;;;;;5093914;28;19924;-76
2022/08/23 10:24:14;;;;;;;;;;;21.70;99.90;;;;;;5094708;28;19960;-75
2022/08/23 10:26:54;;;;;;;;;;;21.80;99.90;;;;;;5093244;28;20322;-75
2022/08/23 10:29:37;;;;;;;;;;;21.90;99.90;;;;;;5092189;28;19934;-75
2022/08/23 10:32:35;;;;;;;;;;;22.10;99.90;;;;;;5091137;28;19927;-75
2022/08/23 10:35:13;;;;;;;;;;;22.30;99.90;;;;;;5068255;28;20023;-74
2022/08/23 10:37:48;;;;;;;;;;;22.40;99.90;;;;;;5092113;28;20382;-74
2022/08/23 10:40:24;;;;;;;;;;;22.30;99.90;;;;;;5092633;28;19916;-75
2022/08/23 10:43:05;;;;;;;;;;;22.10;99.90;;;;;;5092444;28;19916;-75
2022/08/23 10:45:32;;;;;;;;;;;21.80;99.90;;;;;;5092540;28;19916;-76
2022/08/23 10:47:57;;;;;;;;;;;21.90;99.90;;;;;;5092080;28;19966;-75
2022/08/23 10:50:23;;;;;;;;;;;21.80;99.90;;;;;;5092894;28;19916;-75
2022/08/23 10:52:54;;;;;;;;;;;21.80;99.90;;;;;;5091927;28;19995;-76
2022/08/23 10:56:19;;;;;;;;;;;21.90;99.90;;;;;;5092495;28;19912;-75
2022/08/23 10:58:54;;;;;;;;;;;22.00;99.90;;;;;;5089305;28;19931;-74
2022/08/23 11:01:22;;;;;;;;;;;21.90;99.90;;;;;;5092529;28;19924;-75
2022/08/23 11:04:13;;;;;;;;;;;21.80;99.90;;;;;;5092297;28;19920;-75
2022/08/23 11:06:46;;;;;;;;;;;21.80;99.90;;;;;;5092818;28;19912;-75
2022/08/23 11:09:17;;;;;;;;;;;21.90;99.90;;;;;;5090512;28;19912;-76
2022/08/23 11:11:43;;;;;;;;;;;21.90;99.90;;;;;;5092089;28;19919;-75
2022/08/23 11:14:31;;;;;;;;;;;22.10;99.90;;;;;;5091492;28;19920;-75
2022/08/23 11:16:58;;;;;;;;;;;22.00;99.90;;;;;;5091094;28;20261;-75
2022/08/23 11:19:42;;;;;;;;;;;22.10;99.90;;;;;;5091117;28;19923;-76
2022/08/23 11:22:12;;;;;;;;;;;22.00;99.90;;;;;;5091182;28;19912;-75
2022/08/23 11:24:48;;;;;;;;;;;22.00;99.90;;;;;;5092225;28;19913;-75
2022/08/23 11:27:23;;;;;;;;;;;21.90;99.90;;;;;;5092395;28;20004;-75
2022/08/23 11:29:49;;;;;;;;;;;21.80;99.90;;;;;;5091834;28;19912;-76
2022/08/23 11:32:29;;;;;;;;;;;21.90;99.90;;;;;;5091005;28;19986;-76
2022/08/23 11:35:07;;;;;;;;;;;22.00;99.90;;;;;;5091492;28;20002;-75
2022/08/23 11:37:54;;;;;;;;;;;22.30;99.90;;;;;;5090893;28;20329;-75
2022/08/23 11:40:39;;;;;;;;;;;22.40;99.90;;;;;;5091559;28;19928;-75
2022/08/23 11:43:24;;;;;;;;;;;22.30;99.90;;;;;;5090697;28;19947;-75
2022/08/23 11:45:50;;;;;;;;;;;22.20;99.90;;;;;;5090601;28;19916;-75
2022/08/23 11:48:16;;;;;;;;;;;22.20;99.90;;;;;;5090648;28;19926;-75
2022/08/23 11:50:44;;;;;;;;;;;22.20;99.90;;;;;;5091181;28;19919;-75
2022/08/23 11:53:22;;;;;;;;;;;22.00;99.90;;;;;;5090645;28;20336;-75
2022/08/23 11:55:55;;;;;;;;;;;22.00;99.90;;;;;;5090998;28;19973;-76
2022/08/23 11:58:24;;;;;;;;;;;22.00;99.90;;;;;;5090755;28;19919;-74
2022/08/23 12:00:50;;;;;;;;;;;22.00;99.90;;;;;;5092155;28;19926;-75
2022/08/23 12:03:23;;;;;;;;;;;22.10;99.90;;;;;;5094197;28;19943;-75
2022/08/23 12:05:51;;;;;;;;;;;22.10;99.90;;;;;;5093341;28;19908;-75
2022/08/23 12:08:36;;;;;;;;;;;22.10;99.90;;;;;;5093771;28;19908;-75
2022/08/23 12:11:04;;;;;;;;;;;22.00;99.90;;;;;;5093279;28;20365;-75
2022/08/23 12:13:32;;;;;;;;;;;21.90;99.90;;;;;;5093578;28;19912;-74
2022/08/23 12:16:12;;;;;;;;;;;21.80;99.90;;;;;;5093252;28;19908;-75
2022/08/23 12:18:43;;;;;;;;;;;21.80;99.90;;;;;;5092346;28;19961;-73
2022/08/23 12:21:15;;;;;;;;;;;21.80;99.90;;;;;;5093072;28;19924;-75
2022/08/23 12:23:43;;;;;;;;;;;21.80;99.90;;;;;;5093600;28;19951;-74
2022/08/23 12:26:12;;;;;;;;;;;22.00;99.90;;;;;;5093211;28;19916;-75
2022/08/23 12:28:50;;;;;;;;;;;22.10;99.90;;;;;;5093678;28;19908;-76
2022/08/23 12:31:20;;;;;;;;;;;22.20;99.90;;;;;;5093290;28;19908;-76
2022/08/23 12:33:58;;;;;;;;;;;22.10;99.90;;;;;;5093526;28;19920;-75
2022/08/23 12:36:46;;;;;;;;;;;22.20;99.90;;;;;;5093463;28;19909;-75
2022/08/23 12:39:20;;;;;;;;;;;22.30;99.90;;;;;;5086743;28;19966;-75
2022/08/23 12:41:49;;;;;;;;;;;22.40;99.90;;;;;;5093414;28;19912;-75
2022/08/23 12:44:18;;;;;;;;;;;22.50;99.90;;;;;;5092817;28;19915;-75
2022/08/23 12:46:45;;;;;;;;;;;22.50;99.90;;;;;;5093409;28;19908;-75
2022/08/23 12:49:23;;;;;;;;;;;22.60;99.90;;;;;;5092614;28;20490;-74
2022/08/23 12:51:50;;;;;;;;;;;22.70;99.90;;;;;;5092992;28;19940;-74
2022/08/23 12:54:21;;;;;;;;;;;22.70;99.90;;;;;;5092894;28;19909;-74
2022/08/23 12:56:48;;;;;;;;;;;22.80;99.90;;;;;;5091868;28;19912;-75
2022/08/23 12:59:28;;;;;;;;;;;22.80;99.90;;;;;;5092455;28;19923;-75
2022/08/23 13:01:54;;;;;;;;;;;22.80;99.90;;;;;;5092549;28;20258;-75
2022/08/23 13:04:20;;;;;;;;;;;22.70;99.90;;;;;;5093157;28;19912;-75
2022/08/23 13:06:47;;;;;;;;;;;22.60;99.90;;;;;;5092824;28;19915;-74
2022/08/23 13:09:16;;;;;;;;;;;22.50;99.90;;;;;;5092364;28;19977;-75
2022/08/23 13:11:42;;;;;;;;;;;22.50;99.90;;;;;;5091758;28;20256;-75
2022/08/23 13:14:21;;;;;;;;;;;22.50;99.90;;;;;;5092513;28;19908;-75
2022/08/23 13:16:46;;;;;;;;;;;22.50;99.90;;;;;;5093085;28;19909;-75
2022/08/23 13:19:15;;;;;;;;;;;22.60;99.90;;;;;;5092288;28;20550;-75
2022/08/23 13:21:41;;;;;;;;;;;22.60;99.90;;;;;;5092963;28;19912;-75
2022/08/23 13:24:45;;;;;;;;;;;22.70;99.90;;;;;;5092133;28;19915;-76
2022/08/23 13:27:15;;;;;;;;;;;22.70;99.90;;;;;;5049690;28;19913;-74
2022/08/23 13:29:51;;;;;;;;;;;22.70;99.90;;;;;;5050348;28;19999;-75
2022/08/23 13:32:38;;;;;;;;;;;22.70;99.90;;;;;;5073699;28;20319;-75
2022/08/23 13:35:22;;;;;;;;;;;22.80;99.90;;;;;;5092437;28;19920;-76
2022/08/23 13:37:49;;;;;;;;;;;22.90;99.90;;;;;;5092591;28;19908;-75
2022/08/23 13:40:26;;;;;;;;;;;23.00;99.90;;;;;;5090874;28;19986;-75
2022/08/23 13:42:56;;;;;;;;;;;23.10;99.90;;;;;;5091625;28;19940;-75
2022/08/23 13:45:26;;;;;;;;;;;23.20;99.90;;;;;;5092745;28;19908;-75
2022/08/23 13:48:01;;;;;;;;;;;23.10;99.90;;;;;;5092854;28;19908;-75
2022/08/23 13:50:31;;;;;;;;;;;23.10;99.90;;;;;;5092610;28;19962;-75
2022/08/23 13:52:57;;;;;;;;;;;23.30;99.90;;;;;;5092249;28;19931;-77
2022/08/23 13:55:23;;;;;;;;;;;23.30;99.90;;;;;;5095240;28;20349;-75
2022/08/23 13:57:49;;;;;;;;;;;23.30;99.90;;;;;;5096289;28;19908;-75
2022/08/23 14:00:15;;;;;;;;;;;23.20;99.90;;;;;;5095846;28;19912;-74
2022/08/23 14:02:40;;;;;;;;;;;23.30;99.90;;;;;;5096518;28;19965;-74
2022/08/23 14:05:06;;;;;;;;;;;23.40;99.90;;;;;;5096042;28;19912;-75
2022/08/23 14:07:32;;;;;;;;;;;23.60;99.90;;;;;;5096646;28;19923;-75
2022/08/23 14:09:58;;;;;;;;;;;23.80;99.90;;;;;;5095955;28;19960;-76
2022/08/23 14:12:29;;;;;;;;;;;23.90;99.90;;;;;;5096436;28;19908;-75
2022/08/23 14:14:55;;;;;;;;;;;23.80;99.90;;;;;;5096349;28;19997;-75
2022/08/23 14:17:21;;;;;;;;;;;23.80;99.90;;;;;;5095599;28;19938;-76
2022/08/23 14:19:47;;;;;;;;;;;23.60;99.90;;;;;;5096006;28;20002;-75
2022/08/23 14:22:13;;;;;;;;;;;23.60;99.90;;;;;;5095546;28;20242;-75
2022/08/23 14:24:39;;;;;;;;;;;23.70;99.90;;;;;;5096198;28;19908;-74
2022/08/23 14:27:06;;;;;;;;;;;23.70;99.90;;;;;;5095488;28;19908;-75
2022/08/23 14:29:31;;;;;;;;;;;23.70;99.90;;;;;;5095650;28;19908;-74
2022/08/23 14:31:57;;;;;;;;;;;23.70;99.90;;;;;;5095864;28;20455;-76
2022/08/23 14:34:24;;;;;;;;;;;23.70;99.90;;;;;;5095196;28;19927;-76